createdAt,value
2018-02-08T00:00:31.221Z,66.80
2018-02-08T00:02:35.364Z,66.70
2018-02-08T00:04:38.716Z,66.80
2018-02-08T00:06:42.059Z,66.80
2018-02-08T00:08:45.414Z,67.00
2018-02-08T00:10:48.758Z,67.10
2018-02-08T00:12:52.119Z,67.10
2018-02-08T00:14:55.453Z,66.80
2018-02-08T00:16:58.767Z,66.80
2018-02-08T00:19:02.115Z,66.80
2018-02-08T00:21:05.437Z,66.80
2018-02-08T00:23:08.793Z,66.90
2018-02-08T00:25:12.150Z,66.90
2018-02-08T00:27:16.233Z,66.10
2018-02-08T00:29:19.591Z,66.40
2018-02-08T00:31:22.905Z,66.60
2018-02-08T00:33:26.271Z,66.50
2018-02-08T00:35:29.585Z,66.80
2018-02-08T00:37:32.935Z,66.70
2018-02-08T00:39:36.305Z,66.80
2018-02-08T00:41:40.404Z,66.70
2018-02-08T00:43:43.749Z,66.90
2018-02-08T00:45:47.069Z,67.00
2018-02-08T00:47:50.406Z,66.80
2018-02-08T00:49:54.529Z,66.90
2018-02-08T00:51:57.862Z,66.80
2018-02-08T00:54:01.215Z,67.10
2018-02-08T00:56:04.560Z,66.90
2018-02-08T00:58:08.676Z,67.00
2018-02-08T01:00:12.045Z,66.90
2018-02-08T01:02:15.400Z,67.00
2018-02-08T01:04:18.740Z,67.00
2018-02-08T01:06:22.872Z,66.60
2018-02-08T01:08:26.200Z,66.90
2018-02-08T01:10:29.578Z,67.00
2018-02-08T01:12:32.937Z,66.80
2018-02-08T01:14:36.312Z,66.70
2018-02-08T01:16:40.499Z,66.20
2018-02-08T01:18:43.848Z,66.20
2018-02-08T01:20:47.276Z,66.40
2018-02-08T01:22:50.620Z,66.40
2018-02-08T01:24:54.721Z,65.90
2018-02-08T01:26:59.246Z,66.00
2018-02-08T01:29:03.362Z,66.70
2018-02-08T01:31:06.742Z,66.80
2018-02-08T01:33:10.064Z,66.90
2018-02-08T01:35:13.453Z,66.60
2018-02-08T01:37:16.829Z,66.80
2018-02-08T01:39:20.185Z,65.90
2018-02-08T01:41:23.536Z,66.70
2018-02-08T01:43:26.892Z,66.80
2018-02-08T01:45:31.004Z,66.60
2018-02-08T01:47:35.129Z,66.70
2018-02-08T01:49:46.188Z,66.70
2018-02-08T01:51:49.546Z,66.80
2018-02-08T01:53:52.909Z,66.80
2018-02-08T01:55:56.259Z,66.60
2018-02-08T01:58:00.381Z,66.40
2018-02-08T02:00:03.767Z,66.30
2018-02-08T02:02:07.133Z,66.50
2018-02-08T02:04:10.518Z,66.50
2018-02-08T02:06:13.860Z,66.70
2018-02-08T02:08:18.389Z,66.90
2018-02-08T02:10:22.978Z,65.90
2018-02-08T02:12:26.350Z,66.60
2018-02-08T02:14:30.511Z,66.90
2018-02-08T02:16:33.852Z,66.70
2018-02-08T02:18:37.208Z,66.50
2018-02-08T02:20:40.549Z,66.70
2018-02-08T02:22:43.892Z,66.30
2018-02-08T02:24:47.275Z,67.60
2018-02-08T02:26:50.652Z,66.60
2018-02-08T02:28:54.030Z,66.50
2018-02-08T02:30:57.366Z,66.50
2018-02-08T02:33:00.698Z,66.30
2018-02-08T02:35:04.857Z,66.50
2018-02-08T02:37:08.190Z,66.50
2018-02-08T02:39:12.300Z,66.10
2018-02-08T02:41:15.701Z,66.10
2018-02-08T02:43:19.821Z,66.30
2018-02-08T02:45:23.255Z,66.10
2018-02-08T02:47:26.590Z,66.30
2018-02-08T02:49:29.974Z,66.20
2018-02-08T02:51:33.367Z,66.30
2018-02-08T02:53:36.720Z,66.50
2018-02-08T02:55:40.094Z,67.10
2018-02-08T02:57:43.471Z,66.60
2018-02-08T02:59:47.564Z,66.70
2018-02-08T03:01:51.689Z,66.80
2018-02-08T03:03:55.034Z,66.70
2018-02-08T03:05:58.399Z,66.50
2018-02-08T03:08:01.768Z,66.50
2018-02-08T03:10:05.159Z,65.80
2018-02-08T03:12:08.547Z,66.10
2018-02-08T03:14:11.915Z,66.10
2018-02-08T03:16:16.076Z,65.90
2018-02-08T03:18:19.421Z,65.70
2018-02-08T03:20:22.769Z,65.80
2018-02-08T03:22:26.180Z,66.10
2018-02-08T03:24:29.542Z,65.80
2018-02-08T03:26:32.924Z,65.80
2018-02-08T03:28:36.271Z,66.00
2018-02-08T03:30:40.135Z,65.70
2018-02-08T03:32:43.533Z,66.10
2018-02-08T03:34:46.880Z,65.70
2018-02-08T03:36:50.290Z,65.90
2018-02-08T03:38:53.637Z,66.00
2018-02-08T03:40:56.965Z,66.30
2018-02-08T03:43:00.345Z,66.30
2018-02-08T03:45:04.506Z,66.10
2018-02-08T03:47:07.876Z,65.60
2018-02-08T03:49:11.253Z,66.00
2018-02-08T03:51:14.619Z,65.80
2018-02-08T03:53:18.729Z,65.80
2018-02-08T03:55:22.095Z,65.00
2018-02-08T03:57:25.487Z,65.30
2018-02-08T03:59:28.837Z,65.10
2018-02-08T04:01:32.202Z,65.30
2018-02-08T04:03:36.307Z,65.20
2018-02-08T04:05:40.421Z,65.10
2018-02-08T04:07:44.529Z,64.50
2018-02-08T04:09:48.632Z,64.60
2018-02-08T04:11:52.008Z,64.50
2018-02-08T04:13:55.345Z,64.70
2018-02-08T04:15:58.689Z,64.30
2018-02-08T04:18:02.050Z,64.10
2018-02-08T04:20:05.371Z,64.10
2018-02-08T04:22:08.734Z,64.50
2018-02-08T04:24:12.078Z,64.50
2018-02-08T04:26:16.221Z,64.60
2018-02-08T04:28:19.601Z,64.50
2018-02-08T04:30:22.980Z,64.30
2018-02-08T04:32:26.309Z,64.50
2018-02-08T04:34:29.659Z,64.50
2018-02-08T04:36:33.768Z,64.90
2018-02-08T04:38:48.987Z,64.90
2018-02-08T04:41:04.058Z,64.90
2018-02-08T04:43:19.358Z,64.90
2018-02-08T04:45:34.495Z,64.80
2018-02-08T04:50:13.401Z,64.80
2018-02-08T04:52:16.775Z,65.50
2018-02-08T04:54:20.863Z,64.80
2018-02-08T04:56:24.259Z,64.80
2018-02-08T04:58:27.630Z,65.10
2018-02-08T05:00:30.967Z,65.00
2018-02-08T05:02:35.091Z,65.10
2018-02-08T05:04:38.444Z,64.90
2018-02-08T05:06:42.633Z,65.20
2018-02-08T05:08:46.002Z,65.20
2018-02-08T05:10:49.344Z,65.10
2018-02-08T05:12:52.780Z,64.80
2018-02-08T05:14:56.154Z,65.10
2018-02-08T05:16:59.533Z,64.90
2018-02-08T05:19:02.926Z,64.50
2018-02-08T05:21:07.022Z,64.50
2018-02-08T05:23:10.391Z,64.50
2018-02-08T05:25:13.799Z,64.70
2018-02-08T05:27:17.232Z,64.40
2018-02-08T05:29:20.599Z,64.60
2018-02-08T05:31:24.068Z,64.90
2018-02-08T05:33:27.444Z,64.90
2018-02-08T05:35:30.785Z,65.10
2018-02-08T05:37:34.174Z,64.90
2018-02-08T05:39:38.336Z,64.50
2018-02-08T05:41:41.725Z,64.70
2018-02-08T05:43:45.182Z,65.40
2018-02-08T05:45:48.580Z,64.80
2018-02-08T05:47:52.076Z,64.90
2018-02-08T05:49:55.509Z,64.90
2018-02-08T05:51:59.682Z,64.90
2018-02-08T05:54:03.185Z,64.80
2018-02-08T05:56:06.530Z,66.00
2018-02-08T05:58:09.890Z,66.10
2018-02-08T06:00:13.252Z,65.30
2018-02-08T06:02:16.692Z,65.10
2018-02-08T06:04:20.044Z,65.20
2018-02-08T06:06:23.403Z,65.20
2018-02-08T06:08:27.584Z,64.60
2018-02-08T06:10:30.909Z,64.70
2018-02-08T06:12:35.086Z,64.50
2018-02-08T06:14:38.429Z,64.40
2018-02-08T06:16:41.940Z,64.70
2018-02-08T06:18:46.241Z,64.80
2018-02-08T06:20:53.322Z,64.70
2018-02-08T06:22:56.772Z,65.00
2018-02-08T06:25:00.902Z,64.50
2018-02-08T06:27:05.033Z,65.80
2018-02-08T06:29:08.400Z,65.70
2018-02-08T06:31:12.506Z,65.50
2018-02-08T06:33:16.625Z,65.50
2018-02-08T06:35:20.738Z,65.50
2018-02-08T06:37:24.896Z,65.60
2018-02-08T06:39:28.268Z,65.60
2018-02-08T06:41:31.628Z,65.00
2018-02-08T06:43:35.004Z,65.00
2018-02-08T06:45:39.158Z,65.70
2018-02-08T06:47:42.508Z,65.60
2018-02-08T06:49:45.844Z,65.70
2018-02-08T06:51:49.215Z,65.60
2018-02-08T06:53:52.598Z,65.90
2018-02-08T06:55:56.727Z,65.90
2018-02-08T06:58:00.166Z,66.00
2018-02-08T07:00:03.554Z,66.10
2018-02-08T07:02:06.901Z,65.80
2018-02-08T07:04:10.213Z,65.90
2018-02-08T07:06:13.552Z,66.10
2018-02-08T07:08:17.668Z,66.50
2018-02-08T07:10:21.033Z,65.90
2018-02-08T07:12:25.189Z,65.50
2018-02-08T07:14:28.529Z,65.50
2018-02-08T07:16:32.721Z,65.90
2018-02-08T07:18:36.086Z,65.90
2018-02-08T07:20:39.441Z,66.00
2018-02-08T07:22:42.811Z,65.10
2018-02-08T07:24:46.195Z,65.30
2018-02-08T07:26:49.560Z,65.40
2018-02-08T07:28:52.951Z,65.40
2018-02-08T07:30:56.281Z,65.70
2018-02-08T07:32:59.638Z,65.50
2018-02-08T07:35:02.979Z,65.50
2018-02-08T07:37:07.099Z,65.70
2018-02-08T07:39:10.513Z,65.70
2018-02-08T07:41:13.892Z,65.60
2018-02-08T07:43:19.197Z,65.70
2018-02-08T07:45:22.566Z,65.60
2018-02-08T07:47:25.896Z,65.50
2018-02-08T07:49:29.271Z,65.40
2018-02-08T07:51:32.636Z,65.50
2018-02-08T07:53:35.993Z,65.70
2018-02-08T07:55:39.352Z,64.90
2018-02-08T07:57:42.686Z,65.10
2018-02-08T07:59:46.051Z,64.70
2018-02-08T08:01:49.446Z,63.80
2018-02-08T08:03:52.834Z,63.90
2018-02-08T08:05:57.055Z,63.90
2018-02-08T08:08:01.213Z,64.10
2018-02-08T08:10:04.639Z,63.90
2018-02-08T08:12:08.780Z,64.50
2018-02-08T08:14:12.234Z,64.20
2018-02-08T08:16:15.567Z,64.10
2018-02-08T08:18:18.890Z,63.40
2018-02-08T08:20:23.787Z,63.30
2018-02-08T08:22:27.139Z,63.20
2018-02-08T08:24:31.405Z,63.30
2018-02-08T08:26:35.555Z,63.40
2018-02-08T08:28:38.973Z,63.20
2018-02-08T08:30:43.075Z,62.90
2018-02-08T08:32:46.488Z,63.00
2018-02-08T08:34:50.497Z,62.90
2018-02-08T08:36:54.686Z,62.20
2018-02-08T08:38:58.847Z,62.70
2018-02-08T08:41:02.193Z,62.60
2018-02-08T08:43:06.324Z,62.00
2018-02-08T08:45:09.694Z,61.90
2018-02-08T08:47:13.120Z,61.80
2018-02-08T08:49:16.480Z,62.20
2018-02-08T08:51:19.893Z,61.80
2018-02-08T08:53:24.016Z,61.50
2018-02-08T08:55:27.406Z,61.60
2018-02-08T08:57:30.857Z,61.50
2018-02-08T08:59:34.192Z,60.70
2018-02-08T09:01:37.602Z,61.20
2018-02-08T09:03:40.921Z,61.10
2018-02-08T09:05:44.267Z,61.20
2018-02-08T09:07:47.646Z,60.70
2018-02-08T09:09:51.749Z,60.50
2018-02-08T09:11:55.128Z,61.00
2018-02-08T09:13:58.515Z,60.20
2018-02-08T09:16:01.839Z,61.50
2018-02-08T09:18:05.207Z,63.00
2018-02-08T09:20:09.313Z,61.50
2018-02-08T09:22:12.699Z,61.50
2018-02-08T09:24:16.814Z,56.40
2018-02-08T09:26:20.194Z,56.40
2018-02-08T09:28:23.532Z,57.90
2018-02-08T09:30:26.909Z,57.60
2018-02-08T09:32:31.032Z,57.80
2018-02-08T09:34:34.370Z,57.70
2018-02-08T09:36:37.730Z,57.50
2018-02-08T09:38:41.117Z,57.80
2018-02-08T09:40:44.455Z,58.90
2018-02-08T09:42:47.801Z,55.90
2018-02-08T09:44:51.170Z,57.50
2018-02-08T09:46:55.260Z,53.70
2018-02-08T09:48:59.371Z,52.70
2018-02-08T09:51:02.718Z,53.00
2018-02-08T09:53:06.096Z,53.20
2018-02-08T09:55:09.470Z,51.40
2018-02-08T09:57:12.823Z,53.20
2018-02-08T09:59:16.191Z,53.90
2018-02-08T10:01:19.551Z,54.30
2018-02-08T10:03:22.915Z,55.90
2018-02-08T10:05:27.030Z,51.90
2018-02-08T10:07:31.132Z,52.30
2018-02-08T10:09:35.269Z,52.60
2018-02-08T10:11:38.625Z,52.50
2018-02-08T10:13:41.944Z,53.90
2018-02-08T10:15:45.297Z,54.40
2018-02-08T10:17:48.651Z,54.80
2018-02-08T10:19:53.633Z,52.90
2018-02-08T10:21:57.802Z,52.40
2018-02-08T10:24:01.177Z,52.70
2018-02-08T10:26:04.551Z,52.60
2018-02-08T10:28:07.912Z,53.80
2018-02-08T10:30:12.033Z,51.60
2018-02-08T10:32:15.372Z,51.40
2018-02-08T10:34:19.560Z,53.40
2018-02-08T10:36:22.913Z,53.80
2018-02-08T10:38:27.024Z,54.30
2018-02-08T10:40:31.130Z,53.50
2018-02-08T10:42:34.509Z,53.80
2018-02-08T10:44:38.014Z,53.30
2018-02-08T10:46:42.432Z,55.30
2018-02-08T10:48:47.512Z,56.30
2018-02-08T10:50:50.891Z,56.20
2018-02-08T10:52:54.293Z,55.70
2018-02-08T10:54:57.642Z,56.00
2018-02-08T10:57:02.019Z,56.60
2018-02-08T10:59:05.388Z,57.00
2018-02-08T11:01:09.015Z,56.50
2018-02-08T11:03:12.328Z,56.50
2018-02-08T11:05:16.527Z,56.10
2018-02-08T11:07:19.921Z,56.00
2018-02-08T11:09:23.304Z,54.80
2018-02-08T11:11:26.638Z,55.90
2018-02-08T11:13:30.764Z,56.10
2018-02-08T11:15:34.749Z,56.10
2018-02-08T11:17:38.078Z,55.90
2018-02-08T11:19:41.486Z,56.10
2018-02-08T11:21:45.378Z,54.30
2018-02-08T11:23:48.775Z,55.40
2018-02-08T11:25:52.177Z,55.40
2018-02-08T11:27:56.304Z,53.60
2018-02-08T11:29:59.674Z,53.20
2018-02-08T11:32:03.122Z,50.10
2018-02-08T11:34:06.515Z,50.80
2018-02-08T11:36:10.659Z,47.30
2018-02-08T11:38:15.013Z,47.30
2018-02-08T11:40:19.158Z,46.90
2018-02-08T11:42:23.133Z,46.80
2018-02-08T11:44:27.301Z,43.40
2018-02-08T11:46:30.665Z,43.60
2018-02-08T11:48:34.061Z,43.00
2018-02-08T11:50:37.422Z,42.90
2018-02-08T11:52:40.777Z,42.60
2018-02-08T11:54:44.129Z,42.40
2018-02-08T11:56:48.265Z,38.80
2018-02-08T11:58:51.664Z,39.10
2018-02-08T12:00:55.409Z,38.10
2018-02-08T12:02:58.779Z,36.20
2018-02-08T12:05:02.129Z,38.90
2018-02-08T12:07:05.489Z,39.10
2018-02-08T12:09:08.832Z,39.80
2018-02-08T12:11:12.223Z,40.40
2018-02-08T12:13:16.405Z,40.70
2018-02-08T12:15:19.788Z,41.40
2018-02-08T12:17:23.173Z,42.40
2018-02-08T12:19:27.658Z,43.20
2018-02-08T12:21:32.034Z,45.30
2018-02-08T12:23:36.193Z,45.10
2018-02-08T12:25:41.131Z,44.00
2018-02-08T12:27:44.562Z,43.90
2018-02-08T12:29:47.910Z,43.20
2018-02-08T12:31:53.912Z,40.40
2018-02-08T12:33:57.862Z,40.70
2018-02-08T12:36:02.223Z,41.70
2018-02-08T12:38:05.573Z,42.00
2018-02-08T12:40:08.996Z,39.90
2018-02-08T12:42:13.948Z,39.90
2018-02-08T12:44:17.464Z,40.00
2018-02-08T12:46:21.762Z,36.60
2018-02-08T12:48:26.753Z,31.10
2018-02-08T12:50:31.227Z,31.10
2018-02-08T12:52:35.572Z,32.00
2018-02-08T12:54:39.781Z,32.40
2018-02-08T12:56:43.514Z,33.90
2018-02-08T12:58:47.030Z,31.00
2018-02-08T13:00:50.385Z,30.40
2018-02-08T13:02:54.514Z,30.30
2018-02-08T13:04:58.849Z,29.00
2018-02-08T13:07:02.442Z,28.90
2018-02-08T13:09:05.777Z,26.60
2018-02-08T13:11:09.512Z,26.30
2018-02-08T13:13:13.741Z,24.60
2018-02-08T13:15:17.087Z,23.10
2018-02-08T13:17:21.149Z,23.80
2018-02-08T13:19:24.515Z,25.90
2018-02-08T13:21:28.606Z,28.70
2018-02-08T13:23:32.752Z,27.30
2018-02-08T13:25:41.462Z,27.30
2018-02-08T13:27:46.839Z,27.20
2018-02-08T13:29:50.212Z,27.20
2018-02-08T13:31:54.216Z,28.70
2018-02-08T13:33:59.863Z,29.30
2018-02-08T13:36:04.999Z,30.80
2018-02-08T13:38:10.554Z,30.60
2018-02-08T13:40:15.818Z,30.60
2018-02-08T13:42:20.294Z,31.90
2018-02-08T13:44:23.681Z,31.40
2018-02-08T13:46:27.041Z,29.70
2018-02-08T13:48:30.418Z,28.60
2018-02-08T13:50:41.682Z,30.40
2018-02-08T13:53:04.822Z,31.30
2018-02-08T13:55:11.745Z,30.00
2018-02-08T13:57:21.656Z,30.40
2018-02-08T13:59:25.797Z,29.00
2018-02-08T14:01:34.728Z,29.20
2018-02-08T14:03:38.767Z,30.50
2018-02-08T14:05:42.120Z,32.40
2018-02-08T14:07:47.132Z,32.20
2018-02-08T14:09:51.695Z,32.20
2018-02-08T14:11:55.100Z,30.90
2018-02-08T14:14:01.148Z,29.40
2018-02-08T14:16:04.524Z,28.80
2018-02-08T14:18:08.143Z,29.80
2018-02-08T14:20:15.665Z,30.70
2018-02-08T14:22:19.071Z,30.80
2018-02-08T14:24:23.486Z,32.30
2018-02-08T14:26:27.209Z,32.30
2018-02-08T14:28:30.976Z,33.60
2018-02-08T14:30:35.924Z,35.10
2018-02-08T14:32:40.212Z,34.30
2018-02-08T14:34:45.777Z,35.20
2018-02-08T14:36:49.197Z,35.30
2018-02-08T14:38:53.405Z,36.20
2018-02-08T14:40:57.726Z,36.50
2018-02-08T14:43:01.751Z,36.90
2018-02-08T14:45:05.302Z,34.80
2018-02-08T14:47:09.804Z,32.50
2018-02-08T14:49:13.349Z,33.80
2018-02-08T14:51:16.957Z,30.50
2018-02-08T14:53:20.725Z,30.20
2018-02-08T14:55:24.901Z,30.80
2018-02-08T14:57:28.399Z,30.40
2018-02-08T14:59:32.815Z,31.70
2018-02-08T15:01:36.241Z,31.60
2018-02-08T15:03:39.605Z,29.80
2018-02-08T15:05:42.997Z,29.70
2018-02-08T15:07:47.133Z,30.70
2018-02-08T15:09:50.516Z,30.60
2018-02-08T15:11:53.864Z,31.20
2018-02-08T15:13:57.216Z,32.30
2018-02-08T15:16:00.781Z,31.90
2018-02-08T15:18:04.258Z,32.80
2018-02-08T15:20:07.728Z,34.10
2018-02-08T15:22:12.303Z,34.60
2018-02-08T15:24:16.268Z,36.10
2018-02-08T15:26:19.905Z,35.40
2018-02-08T15:28:23.361Z,36.40
2018-02-08T15:30:27.856Z,35.90
2018-02-08T15:32:32.188Z,36.90
2018-02-08T15:34:35.735Z,38.20
2018-02-08T15:36:39.961Z,38.90
2018-02-08T15:38:43.401Z,38.40
2018-02-08T15:40:49.205Z,40.70
2018-02-08T15:42:52.806Z,38.70
2018-02-08T15:44:58.130Z,39.00
2018-02-08T15:47:02.209Z,40.00
2018-02-08T15:49:05.609Z,40.80
2018-02-08T15:51:08.939Z,41.40
2018-02-08T15:53:12.369Z,41.20
2018-02-08T15:55:15.698Z,41.80
2018-02-08T15:57:20.075Z,44.40
2018-02-08T15:59:23.585Z,44.30
2018-02-08T16:01:27.208Z,44.80
2018-02-08T16:03:30.686Z,45.00
2018-02-08T16:05:34.885Z,44.70
2018-02-08T16:07:38.313Z,44.70
2018-02-08T16:09:42.935Z,45.60
2018-02-08T16:11:46.441Z,45.50
2018-02-08T16:13:49.845Z,46.10
2018-02-08T16:15:53.189Z,47.20
2018-02-08T16:17:56.572Z,48.00
2018-02-08T16:20:01.280Z,49.60
2018-02-08T16:22:04.714Z,49.70
2018-02-08T16:24:08.194Z,50.40
2018-02-08T16:26:11.664Z,50.50
2018-02-08T16:28:15.032Z,51.30
2018-02-08T16:30:18.588Z,52.30
2018-02-08T16:32:22.127Z,51.80
2018-02-08T16:34:25.473Z,51.80
2018-02-08T16:36:28.865Z,52.40
2018-02-08T16:38:32.263Z,53.10
2018-02-08T16:40:35.640Z,52.70
2018-02-08T16:42:39.765Z,52.50
2018-02-08T16:44:43.121Z,52.70
2018-02-08T16:46:46.458Z,53.00
2018-02-08T16:48:49.826Z,52.50
2018-02-08T16:50:53.158Z,52.60
2018-02-08T16:52:56.550Z,53.10
2018-02-08T16:54:59.912Z,52.90
2018-02-08T16:57:03.289Z,54.00
2018-02-08T16:59:06.631Z,54.00
2018-02-08T17:01:09.973Z,54.90
2018-02-08T17:03:13.334Z,56.90
2018-02-08T17:05:16.681Z,55.90
2018-02-08T17:07:20.786Z,57.40
2018-02-08T17:09:24.896Z,57.00
2018-02-08T17:11:29.010Z,57.00
2018-02-08T17:13:33.145Z,57.20
2018-02-08T17:15:36.522Z,57.40
2018-02-08T17:17:39.867Z,57.00
2018-02-08T17:19:43.203Z,57.60
2018-02-08T17:21:46.537Z,57.70
2018-02-08T17:23:49.864Z,57.60
2018-02-08T17:25:53.202Z,57.40
2018-02-08T17:27:56.559Z,57.50
2018-02-08T17:30:00.654Z,57.50
2018-02-08T17:32:04.758Z,58.50
2018-02-08T17:34:08.097Z,58.50
2018-02-08T17:36:11.460Z,58.40
2018-02-08T17:38:14.815Z,59.10
2018-02-08T17:40:18.155Z,59.90
2018-02-08T17:42:21.544Z,59.20
2018-02-08T17:44:24.888Z,60.00
2018-02-08T17:46:29.022Z,60.30
2018-02-08T17:48:32.371Z,60.10
2018-02-08T17:50:35.724Z,59.70
2018-02-08T17:52:39.088Z,59.60
2018-02-08T17:54:43.213Z,59.90
2018-02-08T17:56:46.584Z,59.90
2018-02-08T17:58:49.924Z,59.30
2018-02-08T18:00:53.250Z,59.70
2018-02-08T18:02:56.621Z,59.80
2018-02-08T18:04:59.967Z,59.80
2018-02-08T18:07:04.065Z,59.90
2018-02-08T18:09:07.393Z,60.40
2018-02-08T18:11:10.722Z,60.20
2018-02-08T18:13:14.065Z,60.40
2018-02-08T18:15:18.153Z,60.60
2018-02-08T18:17:21.483Z,60.40
2018-02-08T18:19:24.817Z,60.50
2018-02-08T18:21:28.170Z,60.70
2018-02-08T18:23:31.595Z,60.80
2018-02-08T18:25:34.994Z,60.20
2018-02-08T18:27:39.126Z,60.50
2018-02-08T18:29:42.459Z,60.60
2018-02-08T18:31:45.880Z,60.70
2018-02-08T18:33:49.216Z,60.70
2018-02-08T18:35:53.328Z,60.20
2018-02-08T18:37:57.418Z,60.50
2018-02-08T18:40:01.529Z,60.60
2018-02-08T18:42:05.005Z,60.60
2018-02-08T18:44:08.404Z,60.10
2018-02-08T18:46:12.507Z,61.00
2018-02-08T18:48:15.829Z,60.90
2018-02-08T18:50:19.927Z,61.20
2018-02-08T18:52:24.038Z,61.10
2018-02-08T18:54:27.409Z,61.10
2018-02-08T18:56:31.597Z,61.20
2018-02-08T18:58:34.966Z,61.30
2018-02-08T19:00:38.347Z,61.60
2018-02-08T19:02:41.709Z,61.90
2018-02-08T19:04:45.087Z,61.70
2018-02-08T19:06:49.232Z,61.60
2018-02-08T19:08:52.781Z,61.60
2018-02-08T19:10:56.160Z,61.90
2018-02-08T19:12:59.504Z,62.00
2018-02-08T19:15:03.644Z,62.20
2018-02-08T19:17:06.991Z,62.20
2018-02-08T19:19:10.326Z,62.40
2018-02-08T19:21:13.691Z,62.80
2018-02-08T19:23:17.048Z,63.00
2018-02-08T19:25:20.380Z,63.00
2018-02-08T19:27:23.820Z,62.40
2018-02-08T19:29:27.332Z,62.60
2018-02-08T19:31:30.920Z,62.90
2018-02-08T19:33:34.318Z,62.80
2018-02-08T19:35:37.843Z,62.90
2018-02-08T19:37:41.220Z,62.40
2018-02-08T19:39:44.595Z,62.20
2018-02-08T19:41:47.950Z,62.90
2018-02-08T19:43:51.284Z,62.80
2018-02-08T19:45:54.643Z,62.80
2018-02-08T19:47:58.079Z,63.40
2018-02-08T19:50:02.976Z,62.90
2018-02-08T19:52:08.025Z,63.30
2018-02-08T19:54:11.423Z,62.70
2018-02-08T19:56:14.802Z,63.20
2018-02-08T19:58:18.238Z,63.40
2018-02-08T20:00:21.631Z,63.50
2018-02-08T20:02:25.056Z,63.50
2018-02-08T20:04:28.420Z,63.20
2018-02-08T20:06:32.235Z,63.90
2018-02-08T20:08:35.586Z,63.90
2018-02-08T20:10:38.943Z,62.30
2018-02-08T20:12:42.267Z,63.20
2018-02-08T20:14:48.993Z,63.90
2018-02-08T20:16:52.336Z,63.80
2018-02-08T20:18:56.439Z,63.20
2018-02-08T20:21:00.555Z,63.90
2018-02-08T20:23:04.665Z,64.90
2018-02-08T20:25:14.359Z,64.00
2018-02-08T20:27:17.698Z,64.20
2018-02-08T20:29:21.808Z,64.20
2018-02-08T20:31:30.888Z,64.40
2018-02-08T20:33:34.279Z,64.30
2018-02-08T20:35:37.645Z,64.60
2018-02-08T20:37:41.061Z,64.40
2018-02-08T20:39:44.436Z,64.40
2018-02-08T20:41:47.824Z,64.50
2018-02-08T20:43:51.218Z,64.40
2018-02-08T20:45:55.135Z,64.20
2018-02-08T20:47:59.016Z,64.70
2018-02-08T20:50:04.194Z,64.70
2018-02-08T20:52:08.308Z,64.30
2018-02-08T20:54:11.640Z,64.00
2018-02-08T20:56:15.737Z,64.40
2018-02-08T20:58:19.564Z,64.40
2018-02-08T21:00:23.941Z,64.20
2018-02-08T21:02:28.255Z,64.40
2018-02-08T21:04:32.786Z,64.90
2018-02-08T21:06:36.920Z,64.90
2018-02-08T21:08:40.262Z,64.90
2018-02-08T21:10:43.600Z,64.40
2018-02-08T21:12:46.970Z,64.60
2018-02-08T21:14:50.340Z,65.50
2018-02-08T21:16:53.692Z,65.20
2018-02-08T21:18:57.074Z,65.40
2018-02-08T21:21:00.528Z,65.60
2018-02-08T21:23:03.859Z,65.50
2018-02-08T21:25:07.208Z,65.40
2018-02-08T21:27:11.358Z,65.70
2018-02-08T21:29:14.705Z,65.80
2018-02-08T21:31:18.072Z,65.50
2018-02-08T21:33:22.566Z,64.90
2018-02-08T21:35:25.908Z,64.40
2018-02-08T21:37:29.277Z,64.00
2018-02-08T21:39:32.650Z,64.30
2018-02-08T21:41:36.080Z,64.30
2018-02-08T21:43:39.525Z,63.70
2018-02-08T21:45:42.901Z,63.20
2018-02-08T21:47:46.250Z,63.10
2018-02-08T21:49:49.623Z,63.10
2018-02-08T21:51:52.983Z,63.20
2018-02-08T21:53:56.317Z,63.50
2018-02-08T21:55:59.657Z,63.50
2018-02-08T21:58:03.020Z,62.90
2018-02-08T22:00:06.401Z,62.90
2018-02-08T22:02:09.778Z,62.30
2018-02-08T22:04:13.095Z,62.10
2018-02-08T22:06:16.429Z,62.40
2018-02-08T22:08:19.807Z,62.00
2018-02-08T22:10:23.166Z,62.40
2018-02-08T22:12:26.526Z,62.00
2018-02-08T22:14:29.880Z,62.00
2018-02-08T22:16:33.255Z,61.90
2018-02-08T22:18:36.569Z,62.00
2018-02-08T22:20:39.965Z,61.70
2018-02-08T22:22:43.943Z,61.50
2018-02-08T22:24:48.085Z,61.00
2018-02-08T22:26:51.453Z,60.90
2018-02-08T22:28:55.562Z,61.50
2018-02-08T22:30:58.921Z,61.40
2018-02-08T22:33:02.265Z,61.40
2018-02-08T22:35:05.604Z,61.70
2018-02-08T22:37:09.701Z,61.70
2018-02-08T22:39:13.126Z,61.50
2018-02-08T22:41:17.265Z,60.90
2018-02-08T22:43:20.609Z,60.80
2018-02-08T22:45:23.944Z,60.50
2018-02-08T22:47:27.275Z,60.60
2018-02-08T22:49:30.628Z,60.50
2018-02-08T22:51:33.977Z,60.60
2018-02-08T22:53:37.323Z,61.50
2018-02-08T22:55:40.649Z,61.20
2018-02-08T22:57:44.047Z,61.50
2018-02-08T22:59:47.387Z,61.00
2018-02-08T23:01:50.765Z,60.10
2018-02-08T23:03:54.129Z,59.00
2018-02-08T23:05:57.468Z,60.00
2018-02-08T23:08:00.837Z,59.80
2018-02-08T23:10:05.027Z,60.00
2018-02-08T23:12:08.443Z,60.00
2018-02-08T23:14:11.807Z,60.60
2018-02-08T23:16:15.171Z,60.40
2018-02-08T23:18:18.549Z,60.80
2018-02-08T23:20:21.902Z,61.20
2018-02-08T23:22:25.225Z,61.50
2018-02-08T23:24:28.581Z,61.60
2018-02-08T23:26:31.972Z,61.10
2018-02-08T23:28:36.079Z,61.20
2018-02-08T23:30:39.413Z,60.90
2018-02-08T23:32:43.505Z,60.70
2018-02-08T23:34:46.875Z,60.70
2018-02-08T23:36:50.236Z,61.00
2018-02-08T23:38:53.601Z,61.30
2018-02-08T23:40:56.949Z,61.60
2018-02-08T23:43:00.300Z,61.60
2018-02-08T23:45:03.661Z,61.70
2018-02-08T23:47:06.999Z,62.40
2018-02-08T23:49:10.342Z,61.70
2018-02-08T23:51:13.692Z,61.10
2018-02-08T23:53:17.130Z,61.50
2018-02-08T23:55:20.495Z,61.50
2018-02-08T23:57:24.607Z,60.50
2018-02-08T23:59:29.732Z,60.10
